CBA3 weather

Kincolith Seaplane Base
British Columbia, Canada

Public forecast

Using degrees Celsius for public forecast. Weather courtesy of forecast.io.

Closest aviation weather report (METAR) to Kincolith Seaplane Base

Closest report is Prince Rupert Airport, 46.2 nm (85.5 km) SSW. Retrieved 2019/11/19 09:21 UTC (15 minutes ago):

CYPR 190921Z AUTO 02003KT 9SM FEW020 BKN045 05/05 A3000 RMK SLP161

Closest aviation forecast (TAF) to Kincolith Seaplane Base

Closest forecast is Prince Rupert Airport, 46.2 nm (85.5 km) SSW. Retrieved 2019/11/19 07:39 UTC (2 hours ago):

TAF CYPR 190638Z 1907/1919 06005KT P6SM SCT020 BKN040 TEMPO 1907/1919 BKN020 BECMG 1909/1911 35008KT RMK FCST BASED ON AUTO OBS NXT FCST BY 191300Z